sensor_id;sensor_type;location;lat;lon;timestamp;P1;durP1;ratioP1;P2;durP2;ratioP2
63217;SDS011;49314;48.278;16.378;2024-02-23T00:02:06;7.72;;;7.03;;
63217;SDS011;49314;48.278;16.378;2024-02-23T00:04:31;5.70;;;5.30;;
63217;SDS011;49314;48.278;16.378;2024-02-23T00:06:56;10.18;;;7.72;;
63217;SDS011;49314;48.278;16.378;2024-02-23T00:09:22;12.82;;;8.70;;
63217;SDS011;49314;48.278;16.378;2024-02-23T00:11:47;8.05;;;6.72;;
63217;SDS011;49314;48.278;16.378;2024-02-23T00:14:15;6.80;;;6.25;;
63217;SDS011;49314;48.278;16.378;2024-02-23T00:16:40;5.82;;;5.43;;
63217;SDS011;49314;48.278;16.378;2024-02-23T00:19:09;7.03;;;5.68;;
63217;SDS011;49314;48.278;16.378;2024-02-23T00:21:37;6.43;;;5.93;;
63217;SDS011;49314;48.278;16.378;2024-02-23T00:24:02;7.80;;;6.75;;
63217;SDS011;49314;48.278;16.378;2024-02-23T00:26:28;30.45;;;17.17;;
63217;SDS011;49314;48.278;16.378;2024-02-23T00:28:54;27.17;;;16.58;;
63217;SDS011;49314;48.278;16.378;2024-02-23T00:31:19;6.63;;;6.03;;
63217;SDS011;49314;48.278;16.378;2024-02-23T00:33:45;4.78;;;4.38;;
63217;SDS011;49314;48.278;16.378;2024-02-23T00:36:10;5.25;;;4.85;;
63217;SDS011;49314;48.278;16.378;2024-02-23T00:38:35;6.03;;;5.63;;
63217;SDS011;49314;48.278;16.378;2024-02-23T00:41:01;7.97;;;7.35;;
63217;SDS011;49314;48.278;16.378;2024-02-23T00:43:26;6.47;;;5.97;;
63217;SDS011;49314;48.278;16.378;2024-02-23T00:45:54;6.60;;;6.10;;
63217;SDS011;49314;48.278;16.378;2024-02-23T00:48:19;5.63;;;5.22;;
63217;SDS011;49314;48.278;16.378;2024-02-23T00:50:45;6.40;;;5.93;;
63217;SDS011;49314;48.278;16.378;2024-02-23T00:53:10;6.47;;;5.97;;
63217;SDS011;49314;48.278;16.378;2024-02-23T00:55:35;6.47;;;5.97;;
63217;SDS011;49314;48.278;16.378;2024-02-23T00:58:00;6.35;;;5.75;;
63217;SDS011;49314;48.278;16.378;2024-02-23T01:00:26;7.35;;;6.78;;
63217;SDS011;49314;48.278;16.378;2024-02-23T01:02:51;7.20;;;6.60;;
63217;SDS011;49314;48.278;16.378;2024-02-23T01:05:17;8.02;;;7.35;;
63217;SDS011;49314;48.278;16.378;2024-02-23T01:07:42;6.93;;;6.22;;
63217;SDS011;49314;48.278;16.378;2024-02-23T01:10:07;6.90;;;6.30;;
63217;SDS011;49314;48.278;16.378;2024-02-23T01:12:32;6.97;;;5.30;;
63217;SDS011;49314;48.278;16.378;2024-02-23T01:14:58;6.57;;;6.05;;
63217;SDS011;49314;48.278;16.378;2024-02-23T01:17:23;6.43;;;5.93;;
63217;SDS011;49314;48.278;16.378;2024-02-23T01:19:48;6.45;;;5.85;;
63217;SDS011;49314;48.278;16.378;2024-02-23T01:22:14;6.20;;;5.50;;
63217;SDS011;49314;48.278;16.378;2024-02-23T01:24:40;9.27;;;7.38;;
63217;SDS011;49314;48.278;16.378;2024-02-23T01:27:05;5.88;;;5.38;;
63217;SDS011;49314;48.278;16.378;2024-02-23T01:29:30;6.00;;;5.57;;
63217;SDS011;49314;48.278;16.378;2024-02-23T01:31:56;5.65;;;5.15;;
63217;SDS011;49314;48.278;16.378;2024-02-23T01:34:21;5.57;;;5.18;;
63217;SDS011;49314;48.278;16.378;2024-02-23T01:36:47;5.63;;;5.22;;
63217;SDS011;49314;48.278;16.378;2024-02-23T01:39:12;6.07;;;5.68;;
63217;SDS011;49314;48.278;16.378;2024-02-23T01:41:37;5.72;;;5.32;;
63217;SDS011;49314;48.278;16.378;2024-02-23T01:44:03;5.10;;;4.65;;
63217;SDS011;49314;48.278;16.378;2024-02-23T01:46:28;5.55;;;5.22;;
63217;SDS011;49314;48.278;16.378;2024-02-23T01:48:53;5.03;;;4.60;;
63217;SDS011;49314;48.278;16.378;2024-02-23T01:51:19;6.80;;;5.65;;
63217;SDS011;49314;48.278;16.378;2024-02-23T01:53:44;6.00;;;5.57;;
63217;SDS011;49314;48.278;16.378;2024-02-23T01:56:10;6.22;;;5.75;;
63217;SDS011;49314;48.278;16.378;2024-02-23T01:58:36;5.95;;;5.45;;
63217;SDS011;49314;48.278;16.378;2024-02-23T02:01:02;5.70;;;5.30;;
63217;SDS011;49314;48.278;16.378;2024-02-23T02:03:27;6.05;;;5.55;;
63217;SDS011;49314;48.278;16.378;2024-02-23T02:05:53;6.07;;;5.63;;
63217;SDS011;49314;48.278;16.378;2024-02-23T02:08:19;5.63;;;5.22;;
63217;SDS011;49314;48.278;16.378;2024-02-23T02:10:45;5.65;;;5.25;;
63217;SDS011;49314;48.278;16.378;2024-02-23T02:13:11;5.93;;;5.40;;
63217;SDS011;49314;48.278;16.378;2024-02-23T02:15:36;5.47;;;5.07;;
63217;SDS011;49314;48.278;16.378;2024-02-23T02:18:02;7.60;;;6.80;;
63217;SDS011;49314;48.278;16.378;2024-02-23T02:20:28;7.68;;;7.00;;
63217;SDS011;49314;48.278;16.378;2024-02-23T02:22:56;6.95;;;6.38;;
63217;SDS011;49314;48.278;16.378;2024-02-23T02:25:22;7.65;;;6.85;;
63217;SDS011;49314;48.278;16.378;2024-02-23T02:27:47;6.72;;;6.28;;
63217;SDS011;49314;48.278;16.378;2024-02-23T02:30:13;6.75;;;6.10;;
63217;SDS011;49314;48.278;16.378;2024-02-23T02:32:38;7.95;;;7.25;;
63217;SDS011;49314;48.278;16.378;2024-02-23T02:35:04;5.97;;;5.47;;
63217;SDS011;49314;48.278;16.378;2024-02-23T02:37:29;6.95;;;6.45;;
63217;SDS011;49314;48.278;16.378;2024-02-23T02:39:54;8.13;;;7.53;;
63217;SDS011;49314;48.278;16.378;2024-02-23T02:42:19;7.03;;;6.43;;
63217;SDS011;49314;48.278;16.378;2024-02-23T02:44:45;7.40;;;6.90;;
63217;SDS011;49314;48.278;16.378;2024-02-23T02:47:10;7.22;;;6.63;;
63217;SDS011;49314;48.278;16.378;2024-02-23T02:49:35;7.50;;;6.85;;
63217;SDS011;49314;48.278;16.378;2024-02-23T02:52:01;7.65;;;7.05;;
63217;SDS011;49314;48.278;16.378;2024-02-23T02:54:26;9.23;;;8.52;;
63217;SDS011;49314;48.278;16.378;2024-02-23T02:56:52;8.90;;;8.27;;
63217;SDS011;49314;48.278;16.378;2024-02-23T02:59:19;9.23;;;8.52;;
63217;SDS011;49314;48.278;16.378;2024-02-23T03:01:44;9.18;;;8.38;;
63217;SDS011;49314;48.278;16.378;2024-02-23T03:04:11;9.25;;;8.35;;
63217;SDS011;49314;48.278;16.378;2024-02-23T03:06:37;9.70;;;9.00;;
63217;SDS011;49314;48.278;16.378;2024-02-23T03:09:02;9.25;;;8.50;;
63217;SDS011;49314;48.278;16.378;2024-02-23T03:11:28;8.95;;;8.18;;
63217;SDS011;49314;48.278;16.378;2024-02-23T03:13:53;9.48;;;8.77;;
63217;SDS011;49314;48.278;16.378;2024-02-23T03:16:21;7.68;;;6.97;;
63217;SDS011;49314;48.278;16.378;2024-02-23T03:18:51;7.10;;;6.45;;
63217;SDS011;49314;48.278;16.378;2024-02-23T03:21:16;7.97;;;7.25;;
63217;SDS011;49314;48.278;16.378;2024-02-23T03:23:42;8.88;;;8.18;;
63217;SDS011;49314;48.278;16.378;2024-02-23T03:26:07;7.05;;;6.45;;
63217;SDS011;49314;48.278;16.378;2024-02-23T03:28:32;8.57;;;7.80;;
63217;SDS011;49314;48.278;16.378;2024-02-23T03:30:58;8.05;;;7.30;;
63217;SDS011;49314;48.278;16.378;2024-02-23T03:33:23;8.68;;;7.88;;
63217;SDS011;49314;48.278;16.378;2024-02-23T03:35:48;8.35;;;7.75;;
63217;SDS011;49314;48.278;16.378;2024-02-23T03:38:13;8.80;;;7.97;;
63217;SDS011;49314;48.278;16.378;2024-02-23T03:40:39;12.13;;;11.02;;
63217;SDS011;49314;48.278;16.378;2024-02-23T03:43:04;9.95;;;9.05;;
63217;SDS011;49314;48.278;16.378;2024-02-23T03:45:31;11.65;;;9.27;;
63217;SDS011;49314;48.278;16.378;2024-02-23T03:47:56;8.40;;;7.80;;
63217;SDS011;49314;48.278;16.378;2024-02-23T03:50:21;13.40;;;12.20;;
63217;SDS011;49314;48.278;16.378;2024-02-23T03:52:46;14.52;;;13.05;;
63217;SDS011;49314;48.278;16.378;2024-02-23T03:55:12;16.92;;;15.25;;
63217;SDS011;49314;48.278;16.378;2024-02-23T03:57:37;17.83;;;16.02;;
63217;SDS011;49314;48.278;16.378;2024-02-23T04:00:02;23.45;;;19.05;;
63217;SDS011;49314;48.278;16.378;2024-02-23T04:02:28;17.38;;;15.43;;
63217;SDS011;49314;48.278;16.378;2024-02-23T04:04:54;18.90;;;17.15;;
63217;SDS011;49314;48.278;16.378;2024-02-23T04:07:19;19.70;;;17.80;;
63217;SDS011;49314;48.278;16.378;2024-02-23T04:09:44;16.75;;;15.30;;
63217;SDS011;49314;48.278;16.378;2024-02-23T04:12:10;11.38;;;10.20;;
63217;SDS011;49314;48.278;16.378;2024-02-23T04:14:35;11.45;;;10.55;;
63217;SDS011;49314;48.278;16.378;2024-02-23T04:17:02;11.70;;;10.68;;
63217;SDS011;49314;48.278;16.378;2024-02-23T04:19:27;7.45;;;6.90;;
63217;SDS011;49314;48.278;16.378;2024-02-23T04:21:53;10.60;;;9.80;;
63217;SDS011;49314;48.278;16.378;2024-02-23T04:24:18;10.23;;;9.35;;
63217;SDS011;49314;48.278;16.378;2024-02-23T04:26:44;6.93;;;6.25;;
63217;SDS011;49314;48.278;16.378;2024-02-23T04:29:09;7.97;;;7.38;;
63217;SDS011;49314;48.278;16.378;2024-02-23T04:31:36;8.73;;;7.97;;
63217;SDS011;49314;48.278;16.378;2024-02-23T04:34:01;8.73;;;8.02;;
63217;SDS011;49314;48.278;16.378;2024-02-23T04:36:27;7.35;;;6.75;;
63217;SDS011;49314;48.278;16.378;2024-02-23T04:38:52;7.43;;;6.82;;
63217;SDS011;49314;48.278;16.378;2024-02-23T04:41:21;7.32;;;6.63;;
63217;SDS011;49314;48.278;16.378;2024-02-23T04:43:47;7.57;;;7.07;;
63217;SDS011;49314;48.278;16.378;2024-02-23T04:46:12;9.82;;;9.13;;
63217;SDS011;49314;48.278;16.378;2024-02-23T04:48:38;9.20;;;8.50;;
63217;SDS011;49314;48.278;16.378;2024-02-23T04:51:03;7.68;;;7.10;;
63217;SDS011;49314;48.278;16.378;2024-02-23T04:53:28;6.07;;;5.68;;
63217;SDS011;49314;48.278;16.378;2024-02-23T04:55:54;6.07;;;5.60;;
63217;SDS011;49314;48.278;16.378;2024-02-23T04:58:19;4.93;;;4.35;;
63217;SDS011;49314;48.278;16.378;2024-02-23T05:00:45;4.57;;;4.18;;
63217;SDS011;49314;48.278;16.378;2024-02-23T05:03:11;5.35;;;4.95;;
63217;SDS011;49314;48.278;16.378;2024-02-23T05:05:36;6.47;;;6.00;;
63217;SDS011;49314;48.278;16.378;2024-02-23T05:08:01;4.57;;;4.30;;
63217;SDS011;49314;48.278;16.378;2024-02-23T05:10:27;4.40;;;4.10;;
63217;SDS011;49314;48.278;16.378;2024-02-23T05:12:53;4.32;;;4.10;;
63217;SDS011;49314;48.278;16.378;2024-02-23T05:15:18;3.70;;;3.50;;
63217;SDS011;49314;48.278;16.378;2024-02-23T05:17:44;5.43;;;5.00;;
63217;SDS011;49314;48.278;16.378;2024-02-23T05:20:09;4.03;;;3.78;;
63217;SDS011;49314;48.278;16.378;2024-02-23T05:22:38;3.40;;;3.20;;
63217;SDS011;49314;48.278;16.378;2024-02-23T05:25:03;4.03;;;3.90;;
63217;SDS011;49314;48.278;16.378;2024-02-23T05:27:30;5.38;;;4.93;;
63217;SDS011;49314;48.278;16.378;2024-02-23T05:29:55;4.85;;;4.65;;
63217;SDS011;49314;48.278;16.378;2024-02-23T05:32:20;4.47;;;4.18;;
63217;SDS011;49314;48.278;16.378;2024-02-23T05:34:46;3.33;;;3.22;;
63217;SDS011;49314;48.278;16.378;2024-02-23T05:37:11;3.03;;;2.88;;
63217;SDS011;49314;48.278;16.378;2024-02-23T05:39:36;3.22;;;3.13;;
63217;SDS011;49314;48.278;16.378;2024-02-23T05:42:03;3.20;;;3.00;;
63217;SDS011;49314;48.278;16.378;2024-02-23T05:44:28;3.38;;;3.17;;
63217;SDS011;49314;48.278;16.378;2024-02-23T05:46:54;3.15;;;3.05;;
63217;SDS011;49314;48.278;16.378;2024-02-23T05:49:19;3.22;;;3.08;;
63217;SDS011;49314;48.278;16.378;2024-02-23T05:51:44;3.47;;;3.17;;
63217;SDS011;49314;48.278;16.378;2024-02-23T05:54:09;2.45;;;2.35;;
63217;SDS011;49314;48.278;16.378;2024-02-23T05:56:35;2.92;;;2.72;;
63217;SDS011;49314;48.278;16.378;2024-02-23T05:59:02;3.22;;;3.05;;
63217;SDS011;49314;48.278;16.378;2024-02-23T06:01:27;2.25;;;2.15;;
63217;SDS011;49314;48.278;16.378;2024-02-23T06:03:52;2.38;;;2.28;;
63217;SDS011;49314;48.278;16.378;2024-02-23T06:06:20;2.97;;;2.88;;
63217;SDS011;49314;48.278;16.378;2024-02-23T06:08:45;3.50;;;2.58;;
63217;SDS011;49314;48.278;16.378;2024-02-23T06:11:11;3.25;;;3.08;;
63217;SDS011;49314;48.278;16.378;2024-02-23T06:13:36;2.70;;;2.60;;
63217;SDS011;49314;48.278;16.378;2024-02-23T06:16:02;2.78;;;2.67;;
63217;SDS011;49314;48.278;16.378;2024-02-23T06:18:28;2.97;;;2.88;;
63217;SDS011;49314;48.278;16.378;2024-02-23T06:20:53;2.70;;;2.60;;
63217;SDS011;49314;48.278;16.378;2024-02-23T06:23:18;2.38;;;2.28;;
63217;SDS011;49314;48.278;16.378;2024-02-23T06:25:47;3.17;;;2.97;;
63217;SDS011;49314;48.278;16.378;2024-02-23T06:28:12;2.88;;;2.75;;
63217;SDS011;49314;48.278;16.378;2024-02-23T06:30:37;3.42;;;3.25;;
63217;SDS011;49314;48.278;16.378;2024-02-23T06:33:03;2.72;;;2.63;;
63217;SDS011;49314;48.278;16.378;2024-02-23T06:35:29;2.63;;;2.53;;
63217;SDS011;49314;48.278;16.378;2024-02-23T06:37:54;2.83;;;2.72;;
63217;SDS011;49314;48.278;16.378;2024-02-23T06:40:19;2.28;;;2.25;;
63217;SDS011;49314;48.278;16.378;2024-02-23T06:42:45;2.28;;;2.17;;
63217;SDS011;49314;48.278;16.378;2024-02-23T06:45:10;2.17;;;2.08;;
63217;SDS011;49314;48.278;16.378;2024-02-23T06:47:35;1.98;;;1.98;;
63217;SDS011;49314;48.278;16.378;2024-02-23T06:50:01;2.20;;;2.15;;
63217;SDS011;49314;48.278;16.378;2024-02-23T06:52:28;2.63;;;2.50;;
63217;SDS011;49314;48.278;16.378;2024-02-23T06:54:53;2.25;;;2.15;;
63217;SDS011;49314;48.278;16.378;2024-02-23T06:57:19;2.40;;;2.40;;
63217;SDS011;49314;48.278;16.378;2024-02-23T06:59:44;2.33;;;2.25;;
63217;SDS011;49314;48.278;16.378;2024-02-23T07:02:09;2.22;;;2.15;;
63217;SDS011;49314;48.278;16.378;2024-02-23T07:04:35;1.75;;;1.67;;
63217;SDS011;49314;48.278;16.378;2024-02-23T07:07:00;3.65;;;3.35;;
63217;SDS011;49314;48.278;16.378;2024-02-23T07:09:32;15.23;;;10.98;;
63217;SDS011;49314;48.278;16.378;2024-02-23T07:11:57;8.10;;;6.55;;
63217;SDS011;49314;48.278;16.378;2024-02-23T07:14:22;4.60;;;4.15;;
63217;SDS011;49314;48.278;16.378;2024-02-23T07:16:48;2.35;;;2.15;;
63217;SDS011;49314;48.278;16.378;2024-02-23T07:19:13;16.67;;;11.20;;
63217;SDS011;49314;48.278;16.378;2024-02-23T07:21:38;5.03;;;3.72;;
63217;SDS011;49314;48.278;16.378;2024-02-23T07:24:04;1.67;;;1.60;;
63217;SDS011;49314;48.278;16.378;2024-02-23T07:26:29;2.15;;;2.05;;
63217;SDS011;49314;48.278;16.378;2024-02-23T07:28:55;3.35;;;2.95;;
63217;SDS011;49314;48.278;16.378;2024-02-23T07:31:20;2.72;;;2.53;;
63217;SDS011;49314;48.278;16.378;2024-02-23T07:33:45;2.40;;;2.38;;
63217;SDS011;49314;48.278;16.378;2024-02-23T07:36:14;1.80;;;1.75;;
63217;SDS011;49314;48.278;16.378;2024-02-23T07:38:39;2.15;;;2.05;;
63217;SDS011;49314;48.278;16.378;2024-02-23T07:41:04;1.85;;;1.85;;
63217;SDS011;49314;48.278;16.378;2024-02-23T07:43:30;1.75;;;1.75;;
63217;SDS011;49314;48.278;16.378;2024-02-23T07:45:55;2.05;;;1.95;;
63217;SDS011;49314;48.278;16.378;2024-02-23T07:48:20;2.75;;;2.58;;
63217;SDS011;49314;48.278;16.378;2024-02-23T07:50:46;1.75;;;1.75;;
63217;SDS011;49314;48.278;16.378;2024-02-23T07:53:11;2.30;;;2.30;;
63217;SDS011;49314;48.278;16.378;2024-02-23T07:55:36;2.22;;;2.20;;
63217;SDS011;49314;48.278;16.378;2024-02-23T07:58:01;2.35;;;2.35;;
63217;SDS011;49314;48.278;16.378;2024-02-23T08:00:27;2.65;;;2.42;;
63217;SDS011;49314;48.278;16.378;2024-02-23T08:02:53;2.22;;;2.20;;
63217;SDS011;49314;48.278;16.378;2024-02-23T08:05:21;2.55;;;2.55;;
63217;SDS011;49314;48.278;16.378;2024-02-23T08:07:46;2.20;;;2.17;;
63217;SDS011;49314;48.278;16.378;2024-02-23T08:10:12;2.30;;;2.20;;
63217;SDS011;49314;48.278;16.378;2024-02-23T08:12:38;2.85;;;2.75;;
63217;SDS011;49314;48.278;16.378;2024-02-23T08:15:03;2.53;;;2.42;;
63217;SDS011;49314;48.278;16.378;2024-02-23T08:17:28;2.55;;;2.45;;
63217;SDS011;49314;48.278;16.378;2024-02-23T08:19:54;2.58;;;2.47;;
63217;SDS011;49314;48.278;16.378;2024-02-23T08:22:19;2.05;;;2.05;;
63217;SDS011;49314;48.278;16.378;2024-02-23T08:24:45;1.85;;;1.85;;
63217;SDS011;49314;48.278;16.378;2024-02-23T08:27:10;2.90;;;2.72;;
63217;SDS011;49314;48.278;16.378;2024-02-23T08:29:37;2.80;;;2.58;;
63217;SDS011;49314;48.278;16.378;2024-02-23T08:32:02;2.22;;;2.22;;
63217;SDS011;49314;48.278;16.378;2024-02-23T08:34:28;2.08;;;2.08;;
63217;SDS011;49314;48.278;16.378;2024-02-23T08:36:53;1.98;;;1.85;;
63217;SDS011;49314;48.278;16.378;2024-02-23T08:39:18;2.45;;;2.35;;
63217;SDS011;49314;48.278;16.378;2024-02-23T08:41:45;2.80;;;2.70;;
63217;SDS011;49314;48.278;16.378;2024-02-23T08:44:10;2.67;;;2.58;;
63217;SDS011;49314;48.278;16.378;2024-02-23T08:46:35;1.80;;;1.80;;
63217;SDS011;49314;48.278;16.378;2024-02-23T08:49:04;2.53;;;2.42;;
63217;SDS011;49314;48.278;16.378;2024-02-23T08:51:29;2.13;;;2.03;;
63217;SDS011;49314;48.278;16.378;2024-02-23T08:53:54;1.98;;;1.98;;
63217;SDS011;49314;48.278;16.378;2024-02-23T08:56:21;2.33;;;2.22;;
63217;SDS011;49314;48.278;16.378;2024-02-23T08:58:46;4.32;;;4.03;;
63217;SDS011;49314;48.278;16.378;2024-02-23T09:01:12;2.47;;;2.38;;
63217;SDS011;49314;48.278;16.378;2024-02-23T09:03:38;2.63;;;2.55;;
63217;SDS011;49314;48.278;16.378;2024-02-23T09:06:03;2.67;;;2.60;;
63217;SDS011;49314;48.278;16.378;2024-02-23T09:08:28;2.05;;;1.95;;
63217;SDS011;49314;48.278;16.378;2024-02-23T09:10:54;1.65;;;1.65;;
63217;SDS011;49314;48.278;16.378;2024-02-23T09:13:19;2.65;;;2.55;;
63217;SDS011;49314;48.278;16.378;2024-02-23T09:15:44;2.45;;;2.35;;
63217;SDS011;49314;48.278;16.378;2024-02-23T09:18:09;1.42;;;1.42;;
63217;SDS011;49314;48.278;16.378;2024-02-23T09:20:35;2.45;;;2.35;;
63217;SDS011;49314;48.278;16.378;2024-02-23T09:23:00;1.98;;;1.98;;
63217;SDS011;49314;48.278;16.378;2024-02-23T09:25:25;2.47;;;2.40;;
63217;SDS011;49314;48.278;16.378;2024-02-23T09:27:51;2.05;;;1.95;;
63217;SDS011;49314;48.278;16.378;2024-02-23T09:30:16;2.17;;;2.17;;
63217;SDS011;49314;48.278;16.378;2024-02-23T09:32:41;1.70;;;1.40;;
63217;SDS011;49314;48.278;16.378;2024-02-23T09:35:07;2.13;;;2.13;;
63217;SDS011;49314;48.278;16.378;2024-02-23T09:37:32;2.08;;;1.98;;
63217;SDS011;49314;48.278;16.378;2024-02-23T09:39:58;2.00;;;1.90;;
63217;SDS011;49314;48.278;16.378;2024-02-23T09:42:23;1.95;;;1.85;;
63217;SDS011;49314;48.278;16.378;2024-02-23T09:44:57;1.98;;;1.85;;
63217;SDS011;49314;48.278;16.378;2024-02-23T09:47:24;1.95;;;0.50;;
63217;SDS011;49314;48.278;16.378;2024-02-23T09:49:49;2.83;;;1.85;;
63217;SDS011;49314;48.278;16.378;2024-02-23T09:52:16;2.05;;;1.95;;
63217;SDS011;49314;48.278;16.378;2024-02-23T09:54:43;2.17;;;1.40;;
63217;SDS011;49314;48.278;16.378;2024-02-23T09:57:08;3.53;;;2.13;;
63217;SDS011;49314;48.278;16.378;2024-02-23T09:59:34;2.70;;;2.50;;
63217;SDS011;49314;48.278;16.378;2024-02-23T10:01:59;3.65;;;3.35;;
63217;SDS011;49314;48.278;16.378;2024-02-23T10:04:25;4.18;;;3.88;;
63217;SDS011;49314;48.278;16.378;2024-02-23T10:06:53;4.40;;;3.63;;
63217;SDS011;49314;48.278;16.378;2024-02-23T10:09:19;3.42;;;2.67;;
63217;SDS011;49314;48.278;16.378;2024-02-23T10:11:51;2.75;;;2.55;;
63217;SDS011;49314;48.278;16.378;2024-02-23T10:14:16;2.88;;;2.22;;
63217;SDS011;49314;48.278;16.378;2024-02-23T10:16:42;2.65;;;2.45;;
63217;SDS011;49314;48.278;16.378;2024-02-23T10:19:07;2.05;;;1.95;;
63217;SDS011;49314;48.278;16.378;2024-02-23T10:21:32;1.73;;;1.63;;
63217;SDS011;49314;48.278;16.378;2024-02-23T10:23:58;7.03;;;4.45;;
63217;SDS011;49314;48.278;16.378;2024-02-23T10:26:23;4.00;;;3.55;;
63217;SDS011;49314;48.278;16.378;2024-02-23T10:28:48;4.07;;;3.67;;
63217;SDS011;49314;48.278;16.378;2024-02-23T10:31:15;3.22;;;2.78;;
63217;SDS011;49314;48.278;16.378;2024-02-23T10:33:40;2.30;;;1.95;;
63217;SDS011;49314;48.278;16.378;2024-02-23T10:36:06;2.33;;;2.22;;
63217;SDS011;49314;48.278;16.378;2024-02-23T10:38:33;2.55;;;2.45;;
63217;SDS011;49314;48.278;16.378;2024-02-23T10:41:01;2.35;;;2.25;;
63217;SDS011;49314;48.278;16.378;2024-02-23T10:43:30;2.88;;;1.58;;
63217;SDS011;49314;48.278;16.378;2024-02-23T10:45:57;2.50;;;2.30;;
63217;SDS011;49314;48.278;16.378;2024-02-23T10:48:24;1.67;;;1.58;;
63217;SDS011;49314;48.278;16.378;2024-02-23T10:50:50;2.13;;;2.03;;
63217;SDS011;49314;48.278;16.378;2024-02-23T10:53:15;2.33;;;2.13;;
63217;SDS011;49314;48.278;16.378;2024-02-23T10:55:41;2.15;;;1.90;;
63217;SDS011;49314;48.278;16.378;2024-02-23T10:58:09;2.85;;;2.65;;
63217;SDS011;49314;48.278;16.378;2024-02-23T11:00:36;2.22;;;2.13;;
63217;SDS011;49314;48.278;16.378;2024-02-23T11:03:02;2.15;;;2.05;;
63217;SDS011;49314;48.278;16.378;2024-02-23T11:05:28;3.45;;;1.98;;
63217;SDS011;49314;48.278;16.378;2024-02-23T11:07:58;2.30;;;2.20;;
63217;SDS011;49314;48.278;16.378;2024-02-23T11:10:23;1.90;;;1.33;;
63217;SDS011;49314;48.278;16.378;2024-02-23T11:12:59;2.25;;;2.15;;
63217;SDS011;49314;48.278;16.378;2024-02-23T11:15:25;0.77;;;0.73;;
63217;SDS011;49314;48.278;16.378;2024-02-23T11:17:51;2.65;;;2.55;;
63217;SDS011;49314;48.278;16.378;2024-02-23T11:20:16;2.88;;;2.25;;
63217;SDS011;49314;48.278;16.378;2024-02-23T11:22:41;2.38;;;2.28;;
63217;SDS011;49314;48.278;16.378;2024-02-23T11:25:07;2.50;;;2.30;;
63217;SDS011;49314;48.278;16.378;2024-02-23T11:27:36;3.25;;;2.75;;
63217;SDS011;49314;48.278;16.378;2024-02-23T11:30:02;1.58;;;1.48;;
63217;SDS011;49314;48.278;16.378;2024-02-23T11:35:10;2.90;;;2.72;;
63217;SDS011;49314;48.278;16.378;2024-02-23T11:37:45;1.70;;;1.60;;
63217;SDS011;49314;48.278;16.378;2024-02-23T11:40:11;2.85;;;2.65;;
63217;SDS011;49314;48.278;16.378;2024-02-23T11:42:37;2.00;;;1.90;;
63217;SDS011;49314;48.278;16.378;2024-02-23T11:45:03;2.60;;;2.47;;
63217;SDS011;49314;48.278;16.378;2024-02-23T11:47:29;3.55;;;1.80;;
63217;SDS011;49314;48.278;16.378;2024-02-23T11:49:54;2.55;;;2.45;;
63217;SDS011;49314;48.278;16.378;2024-02-23T11:52:20;2.95;;;2.75;;
63217;SDS011;49314;48.278;16.378;2024-02-23T11:54:46;3.33;;;3.03;;
63217;SDS011;49314;48.278;16.378;2024-02-23T11:57:11;3.22;;;3.03;;
63217;SDS011;49314;48.278;16.378;2024-02-23T11:59:36;2.50;;;2.40;;
63217;SDS011;49314;48.278;16.378;2024-02-23T12:02:02;2.80;;;2.60;;
63217;SDS011;49314;48.278;16.378;2024-02-23T12:04:27;3.00;;;2.67;;
63217;SDS011;49314;48.278;16.378;2024-02-23T12:06:54;2.55;;;2.45;;
63217;SDS011;49314;48.278;16.378;2024-02-23T12:09:19;1.75;;;1.65;;
63217;SDS011;49314;48.278;16.378;2024-02-23T12:11:45;3.03;;;2.92;;
63217;SDS011;49314;48.278;16.378;2024-02-23T12:14:10;3.15;;;3.05;;
63217;SDS011;49314;48.278;16.378;2024-02-23T12:16:36;2.22;;;2.13;;
63217;SDS011;49314;48.278;16.378;2024-02-23T12:19:01;2.03;;;1.92;;
63217;SDS011;49314;48.278;16.378;2024-02-23T12:21:28;2.70;;;2.60;;
63217;SDS011;49314;48.278;16.378;2024-02-23T12:23:53;3.08;;;2.97;;
63217;SDS011;49314;48.278;16.378;2024-02-23T12:26:18;3.42;;;3.22;;
63217;SDS011;49314;48.278;16.378;2024-02-23T12:28:44;2.55;;;2.35;;
63217;SDS011;49314;48.278;16.378;2024-02-23T12:31:09;3.58;;;3.38;;
63217;SDS011;49314;48.278;16.378;2024-02-23T12:33:35;4.07;;;3.72;;
63217;SDS011;49314;48.278;16.378;2024-02-23T12:36:01;3.65;;;3.42;;
63217;SDS011;49314;48.278;16.378;2024-02-23T12:38:27;2.17;;;2.08;;
63217;SDS011;49314;48.278;16.378;2024-02-23T12:40:52;9.05;;;8.05;;
63217;SDS011;49314;48.278;16.378;2024-02-23T12:43:18;3.13;;;2.97;;
63217;SDS011;49314;48.278;16.378;2024-02-23T12:45:46;3.25;;;2.95;;
63217;SDS011;49314;48.278;16.378;2024-02-23T12:48:14;2.78;;;2.60;;
63217;SDS011;49314;48.278;16.378;2024-02-23T12:50:39;2.70;;;2.60;;
63217;SDS011;49314;48.278;16.378;2024-02-23T12:53:04;3.55;;;3.35;;
63217;SDS011;49314;48.278;16.378;2024-02-23T12:55:29;2.78;;;2.65;;
63217;SDS011;49314;48.278;16.378;2024-02-23T12:57:55;3.40;;;3.20;;
63217;SDS011;49314;48.278;16.378;2024-02-23T13:00:20;3.47;;;3.38;;
63217;SDS011;49314;48.278;16.378;2024-02-23T13:02:45;3.45;;;2.97;;
63217;SDS011;49314;48.278;16.378;2024-02-23T13:05:11;3.25;;;3.05;;
63217;SDS011;49314;48.278;16.378;2024-02-23T13:07:36;3.33;;;2.97;;
63217;SDS011;49314;48.278;16.378;2024-02-23T13:10:04;3.55;;;3.35;;
63217;SDS011;49314;48.278;16.378;2024-02-23T13:12:29;3.38;;;3.17;;
63217;SDS011;49314;48.278;16.378;2024-02-23T13:14:54;3.85;;;3.65;;
63217;SDS011;49314;48.278;16.378;2024-02-23T13:17:19;3.80;;;3.63;;
63217;SDS011;49314;48.278;16.378;2024-02-23T13:19:45;3.67;;;3.40;;
63217;SDS011;49314;48.278;16.378;2024-02-23T13:22:10;3.47;;;3.33;;
63217;SDS011;49314;48.278;16.378;2024-02-23T13:24:36;3.72;;;3.53;;
63217;SDS011;49314;48.278;16.378;2024-02-23T13:27:01;3.55;;;2.53;;
63217;SDS011;49314;48.278;16.378;2024-02-23T13:29:27;3.65;;;3.40;;
63217;SDS011;49314;48.278;16.378;2024-02-23T13:31:52;3.22;;;3.10;;
63217;SDS011;49314;48.278;16.378;2024-02-23T13:34:17;3.33;;;3.13;;
63217;SDS011;49314;48.278;16.378;2024-02-23T13:36:43;3.15;;;3.05;;
63217;SDS011;49314;48.278;16.378;2024-02-23T13:39:09;2.28;;;2.17;;
63217;SDS011;49314;48.278;16.378;2024-02-23T13:41:35;4.05;;;3.85;;
63217;SDS011;49314;48.278;16.378;2024-02-23T13:44:00;3.70;;;3.50;;
63217;SDS011;49314;48.278;16.378;2024-02-23T13:46:26;3.97;;;3.78;;
63217;SDS011;49314;48.278;16.378;2024-02-23T13:49:02;3.70;;;3.50;;
63217;SDS011;49314;48.278;16.378;2024-02-23T13:51:28;3.75;;;3.55;;
63217;SDS011;49314;48.278;16.378;2024-02-23T13:53:53;3.17;;;3.00;;
63217;SDS011;49314;48.278;16.378;2024-02-23T13:56:18;3.55;;;3.35;;
63217;SDS011;49314;48.278;16.378;2024-02-23T13:58:44;2.78;;;2.67;;
63217;SDS011;49314;48.278;16.378;2024-02-23T14:01:09;3.88;;;3.58;;
63217;SDS011;49314;48.278;16.378;2024-02-23T14:03:35;4.20;;;3.88;;
63217;SDS011;49314;48.278;16.378;2024-02-23T14:06:00;4.30;;;3.08;;
63217;SDS011;49314;48.278;16.378;2024-02-23T14:08:26;2.50;;;2.40;;
63217;SDS011;49314;48.278;16.378;2024-02-23T14:10:51;3.78;;;3.58;;
63217;SDS011;49314;48.278;16.378;2024-02-23T14:13:17;3.88;;;3.67;;
63217;SDS011;49314;48.278;16.378;2024-02-23T14:15:42;3.42;;;3.25;;
63217;SDS011;49314;48.278;16.378;2024-02-23T14:18:07;2.60;;;2.45;;
63217;SDS011;49314;48.278;16.378;2024-02-23T14:20:32;4.25;;;4.05;;
63217;SDS011;49314;48.278;16.378;2024-02-23T14:22:58;3.90;;;3.70;;
63217;SDS011;49314;48.278;16.378;2024-02-23T14:25:23;4.38;;;4.18;;
63217;SDS011;49314;48.278;16.378;2024-02-23T14:27:48;3.95;;;3.75;;